Napierville, Canada
Current Conditions -  °F | °C
As of 12:35 PM on Wednesday 26 Nov 2014 (Local Time) from KFSO Reporting Station
Overcast Overcast  
Wind Chill: 32°   Ceiling: 3300
Heat Index: 32°   Visibility: 10mi
Dew Point: 22°   Wind: 0mph
Humidity: 67%   Direction: NA
Pressure: 30.2"   Gusts: NA
Location:  45.18°N, 73.4°W
Report Text: KFSO 261735Z AUTO 00000KT 10SM OVC033 00/M05 A3020 RMK AO2 T00001055
Loading
Personal Weather Stations






























Interactive Weather Map New forecast layout! Learn more

10-Day Weather Forecast

Advertisements
Track Severe Weather on mobile